sensor_id;sensor_type;location;lat;lon;timestamp;temperature;humidity
12622;DHT22;6376;48.182;-1.644;2023-02-01T00:01:39;11.40;83.80
12622;DHT22;6376;48.182;-1.644;2023-02-01T00:04:05;11.30;83.80
12622;DHT22;6376;48.182;-1.644;2023-02-01T00:06:31;11.30;83.80
12622;DHT22;6376;48.182;-1.644;2023-02-01T00:08:56;11.30;83.80
12622;DHT22;6376;48.182;-1.644;2023-02-01T00:11:23;11.30;83.80
12622;DHT22;6376;48.182;-1.644;2023-02-01T00:13:49;11.30;83.80
12622;DHT22;6376;48.182;-1.644;2023-02-01T00:16:20;11.30;83.90
12622;DHT22;6376;48.182;-1.644;2023-02-01T00:18:48;11.30;83.80
12622;DHT22;6376;48.182;-1.644;2023-02-01T00:21:17;11.30;83.80
12622;DHT22;6376;48.182;-1.644;2023-02-01T00:23:44;11.20;83.80
12622;DHT22;6376;48.182;-1.644;2023-02-01T00:26:42;11.20;83.80
12622;DHT22;6376;48.182;-1.644;2023-02-01T00:29:11;11.20;83.80
12622;DHT22;6376;48.182;-1.644;2023-02-01T00:31:36;11.20;83.80
12622;DHT22;6376;48.182;-1.644;2023-02-01T00:34:03;11.20;83.80
12622;DHT22;6376;48.182;-1.644;2023-02-01T00:36:28;11.20;83.80
12622;DHT22;6376;48.182;-1.644;2023-02-01T00:38:55;11.20;83.80
12622;DHT22;6376;48.182;-1.644;2023-02-01T00:41:21;11.20;83.80
12622;DHT22;6376;48.182;-1.644;2023-02-01T00:43:48;11.10;83.70
12622;DHT22;6376;48.182;-1.644;2023-02-01T00:46:15;11.10;83.70
12622;DHT22;6376;48.182;-1.644;2023-02-01T00:48:41;11.10;83.70
12622;DHT22;6376;48.182;-1.644;2023-02-01T00:51:10;11.10;83.80
12622;DHT22;6376;48.182;-1.644;2023-02-01T00:53:36;11.10;83.60
12622;DHT22;6376;48.182;-1.644;2023-02-01T00:56:03;11.10;83.60
12622;DHT22;6376;48.182;-1.644;2023-02-01T00:58:29;11.10;83.70
12622;DHT22;6376;48.182;-1.644;2023-02-01T01:01:06;11.10;83.80
12622;DHT22;6376;48.182;-1.644;2023-02-01T01:03:35;11.10;83.70
12622;DHT22;6376;48.182;-1.644;2023-02-01T01:06:08;11.10;83.70
12622;DHT22;6376;48.182;-1.644;2023-02-01T01:08:34;11.00;83.70
12622;DHT22;6376;48.182;-1.644;2023-02-01T01:11:09;11.00;83.60
12622;DHT22;6376;48.182;-1.644;2023-02-01T01:13:34;11.00;83.60
12622;DHT22;6376;48.182;-1.644;2023-02-01T01:16:02;11.00;83.60
12622;DHT22;6376;48.182;-1.644;2023-02-01T01:18:29;11.00;83.60
12622;DHT22;6376;48.182;-1.644;2023-02-01T01:20:55;11.00;83.60
12622;DHT22;6376;48.182;-1.644;2023-02-01T01:23:21;11.00;83.60
12622;DHT22;6376;48.182;-1.644;2023-02-01T01:25:47;11.00;83.60
12622;DHT22;6376;48.182;-1.644;2023-02-01T01:28:12;11.00;83.60
12622;DHT22;6376;48.182;-1.644;2023-02-01T01:30:38;11.00;83.60
12622;DHT22;6376;48.182;-1.644;2023-02-01T01:33:04;11.00;83.60
12622;DHT22;6376;48.182;-1.644;2023-02-01T01:35:30;11.00;83.60
12622;DHT22;6376;48.182;-1.644;2023-02-01T01:37:56;10.90;83.60
12622;DHT22;6376;48.182;-1.644;2023-02-01T01:40:22;10.90;83.60
12622;DHT22;6376;48.182;-1.644;2023-02-01T01:42:48;10.90;83.60
12622;DHT22;6376;48.182;-1.644;2023-02-01T01:45:30;10.90;83.50
12622;DHT22;6376;48.182;-1.644;2023-02-01T01:50:49;10.90;83.50
12622;DHT22;6376;48.182;-1.644;2023-02-01T01:53:23;10.90;83.50
12622;DHT22;6376;48.182;-1.644;2023-02-01T01:55:50;10.90;83.50
12622;DHT22;6376;48.182;-1.644;2023-02-01T01:58:19;10.90;83.50
12622;DHT22;6376;48.182;-1.644;2023-02-01T02:00:46;10.90;83.50
12622;DHT22;6376;48.182;-1.644;2023-02-01T02:03:14;10.90;83.50
12622;DHT22;6376;48.182;-1.644;2023-02-01T02:05:41;10.90;83.50
12622;DHT22;6376;48.182;-1.644;2023-02-01T02:08:06;10.90;83.50
12622;DHT22;6376;48.182;-1.644;2023-02-01T02:10:32;10.90;83.50
12622;DHT22;6376;48.182;-1.644;2023-02-01T02:13:21;10.90;84.20
12622;DHT22;6376;48.182;-1.644;2023-02-01T02:38:01;10.80;83.30
12622;DHT22;6376;48.182;-1.644;2023-02-01T02:40:48;10.80;83.30
12622;DHT22;6376;48.182;-1.644;2023-02-01T02:43:22;10.80;83.20
12622;DHT22;6376;48.182;-1.644;2023-02-01T02:46:33;10.80;83.30
12622;DHT22;6376;48.182;-1.644;2023-02-01T02:52:09;10.80;83.20
12622;DHT22;6376;48.182;-1.644;2023-02-01T02:54:56;10.80;83.10
12622;DHT22;6376;48.182;-1.644;2023-02-01T02:57:36;10.80;83.20
12622;DHT22;6376;48.182;-1.644;2023-02-01T03:00:28;10.80;83.10
12622;DHT22;6376;48.182;-1.644;2023-02-01T03:03:13;10.70;83.10
12622;DHT22;6376;48.182;-1.644;2023-02-01T03:05:57;10.70;83.10
12622;DHT22;6376;48.182;-1.644;2023-02-01T03:08:27;10.70;83.10
12622;DHT22;6376;48.182;-1.644;2023-02-01T03:14:02;10.70;83.00
12622;DHT22;6376;48.182;-1.644;2023-02-01T03:19:25;10.70;83.00
12622;DHT22;6376;48.182;-1.644;2023-02-01T03:22:04;10.70;83.00
12622;DHT22;6376;48.182;-1.644;2023-02-01T03:24:44;10.70;83.00
12622;DHT22;6376;48.182;-1.644;2023-02-01T03:27:29;10.70;83.00
12622;DHT22;6376;48.182;-1.644;2023-02-01T03:30:00;10.70;83.00
12622;DHT22;6376;48.182;-1.644;2023-02-01T03:32:27;10.70;82.90
12622;DHT22;6376;48.182;-1.644;2023-02-01T03:34:53;10.70;82.90
12622;DHT22;6376;48.182;-1.644;2023-02-01T03:37:26;10.70;82.80
12622;DHT22;6376;48.182;-1.644;2023-02-01T03:39:53;10.70;82.80
12622;DHT22;6376;48.182;-1.644;2023-02-01T03:45:11;10.70;82.90
12622;DHT22;6376;48.182;-1.644;2023-02-01T03:47:42;10.70;82.80
12622;DHT22;6376;48.182;-1.644;2023-02-01T03:50:12;10.70;82.80
12622;DHT22;6376;48.182;-1.644;2023-02-01T03:52:46;10.70;82.80
12622;DHT22;6376;48.182;-1.644;2023-02-01T03:55:15;10.70;82.80
12622;DHT22;6376;48.182;-1.644;2023-02-01T03:57:50;10.70;82.80
12622;DHT22;6376;48.182;-1.644;2023-02-01T04:00:22;10.70;82.80
12622;DHT22;6376;48.182;-1.644;2023-02-01T04:02:48;10.70;82.80
12622;DHT22;6376;48.182;-1.644;2023-02-01T04:05:14;10.70;82.80
12622;DHT22;6376;48.182;-1.644;2023-02-01T04:07:40;10.60;82.80
12622;DHT22;6376;48.182;-1.644;2023-02-01T04:10:06;10.70;82.80
12622;DHT22;6376;48.182;-1.644;2023-02-01T04:12:32;10.60;82.70
12622;DHT22;6376;48.182;-1.644;2023-02-01T04:14:58;10.60;82.80
12622;DHT22;6376;48.182;-1.644;2023-02-01T04:17:23;10.60;82.70
12622;DHT22;6376;48.182;-1.644;2023-02-01T04:19:49;10.60;82.70
12622;DHT22;6376;48.182;-1.644;2023-02-01T04:22:15;10.60;82.70
12622;DHT22;6376;48.182;-1.644;2023-02-01T04:24:41;10.60;82.70
12622;DHT22;6376;48.182;-1.644;2023-02-01T04:27:06;10.60;82.70
12622;DHT22;6376;48.182;-1.644;2023-02-01T04:29:32;10.60;82.70
12622;DHT22;6376;48.182;-1.644;2023-02-01T04:31:57;10.60;82.70
12622;DHT22;6376;48.182;-1.644;2023-02-01T04:34:23;10.60;82.70
12622;DHT22;6376;48.182;-1.644;2023-02-01T04:36:50;10.60;82.70
12622;DHT22;6376;48.182;-1.644;2023-02-01T04:39:16;10.60;82.70
12622;DHT22;6376;48.182;-1.644;2023-02-01T04:41:42;10.60;83.40
12622;DHT22;6376;48.182;-1.644;2023-02-01T04:44:17;10.60;82.60
12622;DHT22;6376;48.182;-1.644;2023-02-01T04:46:44;10.60;82.70
12622;DHT22;6376;48.182;-1.644;2023-02-01T04:49:10;10.60;82.70
12622;DHT22;6376;48.182;-1.644;2023-02-01T04:51:36;10.60;82.60
12622;DHT22;6376;48.182;-1.644;2023-02-01T04:54:02;10.60;82.70
12622;DHT22;6376;48.182;-1.644;2023-02-01T04:56:28;10.60;82.70
12622;DHT22;6376;48.182;-1.644;2023-02-01T04:58:54;10.60;82.70
12622;DHT22;6376;48.182;-1.644;2023-02-01T05:01:23;10.60;82.70
12622;DHT22;6376;48.182;-1.644;2023-02-01T05:03:50;10.60;82.70
12622;DHT22;6376;48.182;-1.644;2023-02-01T05:06:16;10.60;82.60
12622;DHT22;6376;48.182;-1.644;2023-02-01T05:08:42;10.60;82.60
12622;DHT22;6376;48.182;-1.644;2023-02-01T05:11:07;10.60;82.60
12622;DHT22;6376;48.182;-1.644;2023-02-01T05:13:53;10.60;82.70
12622;DHT22;6376;48.182;-1.644;2023-02-01T05:16:19;10.50;82.50
12622;DHT22;6376;48.182;-1.644;2023-02-01T05:18:44;10.50;82.60
12622;DHT22;6376;48.182;-1.644;2023-02-01T05:21:10;10.50;82.50
12622;DHT22;6376;48.182;-1.644;2023-02-01T05:23:36;10.50;82.50
12622;DHT22;6376;48.182;-1.644;2023-02-01T05:26:21;10.50;82.60
12622;DHT22;6376;48.182;-1.644;2023-02-01T05:28:47;10.50;82.50
12622;DHT22;6376;48.182;-1.644;2023-02-01T05:31:12;10.50;82.50
12622;DHT22;6376;48.182;-1.644;2023-02-01T05:33:38;10.50;82.50
12622;DHT22;6376;48.182;-1.644;2023-02-01T05:36:04;10.50;82.50
12622;DHT22;6376;48.182;-1.644;2023-02-01T05:38:29;10.50;82.50
12622;DHT22;6376;48.182;-1.644;2023-02-01T05:40:56;10.50;82.50
12622;DHT22;6376;48.182;-1.644;2023-02-01T05:43:22;10.50;82.50
12622;DHT22;6376;48.182;-1.644;2023-02-01T05:45:47;10.50;82.50
12622;DHT22;6376;48.182;-1.644;2023-02-01T05:48:13;10.50;82.50
12622;DHT22;6376;48.182;-1.644;2023-02-01T05:50:39;10.50;82.50
12622;DHT22;6376;48.182;-1.644;2023-02-01T05:53:05;10.50;82.50
12622;DHT22;6376;48.182;-1.644;2023-02-01T05:55:31;10.50;82.50
12622;DHT22;6376;48.182;-1.644;2023-02-01T05:57:57;10.50;82.50
12622;DHT22;6376;48.182;-1.644;2023-02-01T06:00:22;10.50;82.50
12622;DHT22;6376;48.182;-1.644;2023-02-01T06:02:48;10.50;82.50
12622;DHT22;6376;48.182;-1.644;2023-02-01T06:05:14;10.50;82.50
12622;DHT22;6376;48.182;-1.644;2023-02-01T06:07:39;10.50;82.50
12622;DHT22;6376;48.182;-1.644;2023-02-01T06:10:05;10.50;82.50
12622;DHT22;6376;48.182;-1.644;2023-02-01T06:12:32;10.50;82.50
12622;DHT22;6376;48.182;-1.644;2023-02-01T06:14:58;10.50;82.50
12622;DHT22;6376;48.182;-1.644;2023-02-01T06:17:24;10.50;82.40
12622;DHT22;6376;48.182;-1.644;2023-02-01T06:19:50;10.50;82.40
12622;DHT22;6376;48.182;-1.644;2023-02-01T06:22:16;10.50;82.40
12622;DHT22;6376;48.182;-1.644;2023-02-01T06:24:42;10.50;82.40
12622;DHT22;6376;48.182;-1.644;2023-02-01T06:27:08;10.50;82.40
12622;DHT22;6376;48.182;-1.644;2023-02-01T06:29:35;10.50;82.60
12622;DHT22;6376;48.182;-1.644;2023-02-01T06:32:01;10.30;82.30
12622;DHT22;6376;48.182;-1.644;2023-02-01T06:34:26;10.50;82.40
12622;DHT22;6376;48.182;-1.644;2023-02-01T06:36:52;10.50;82.40
12622;DHT22;6376;48.182;-1.644;2023-02-01T06:39:18;10.50;82.40
12622;DHT22;6376;48.182;-1.644;2023-02-01T06:41:48;10.50;82.40
12622;DHT22;6376;48.182;-1.644;2023-02-01T06:44:14;10.50;82.40
12622;DHT22;6376;48.182;-1.644;2023-02-01T06:46:40;10.50;82.40
12622;DHT22;6376;48.182;-1.644;2023-02-01T06:49:05;10.50;82.40
12622;DHT22;6376;48.182;-1.644;2023-02-01T06:51:31;10.50;82.50
12622;DHT22;6376;48.182;-1.644;2023-02-01T06:53:57;10.40;82.40
12622;DHT22;6376;48.182;-1.644;2023-02-01T06:56:23;10.40;82.40
12622;DHT22;6376;48.182;-1.644;2023-02-01T06:58:49;10.50;82.40
12622;DHT22;6376;48.182;-1.644;2023-02-01T07:01:15;10.40;82.30
12622;DHT22;6376;48.182;-1.644;2023-02-01T07:03:41;10.40;82.30
12622;DHT22;6376;48.182;-1.644;2023-02-01T07:06:07;10.40;82.30
12622;DHT22;6376;48.182;-1.644;2023-02-01T07:08:35;10.40;82.30
12622;DHT22;6376;48.182;-1.644;2023-02-01T07:11:10;10.40;82.40
12622;DHT22;6376;48.182;-1.644;2023-02-01T07:13:36;10.40;82.30
12622;DHT22;6376;48.182;-1.644;2023-02-01T07:16:04;10.40;82.40
12622;DHT22;6376;48.182;-1.644;2023-02-01T07:18:31;10.40;82.40
12622;DHT22;6376;48.182;-1.644;2023-02-01T07:20:58;10.40;82.30
12622;DHT22;6376;48.182;-1.644;2023-02-01T07:23:24;10.40;82.30
12622;DHT22;6376;48.182;-1.644;2023-02-01T07:25:54;10.40;82.30
12622;DHT22;6376;48.182;-1.644;2023-02-01T07:28:20;10.40;82.40
12622;DHT22;6376;48.182;-1.644;2023-02-01T07:30:45;10.40;82.30
12622;DHT22;6376;48.182;-1.644;2023-02-01T07:33:18;10.40;82.20
12622;DHT22;6376;48.182;-1.644;2023-02-01T07:35:43;10.40;82.30
12622;DHT22;6376;48.182;-1.644;2023-02-01T07:38:09;10.40;82.30
12622;DHT22;6376;48.182;-1.644;2023-02-01T07:40:34;10.40;82.30
12622;DHT22;6376;48.182;-1.644;2023-02-01T07:43:00;10.40;82.30
12622;DHT22;6376;48.182;-1.644;2023-02-01T07:45:26;10.40;82.30
12622;DHT22;6376;48.182;-1.644;2023-02-01T07:47:52;10.40;82.30
12622;DHT22;6376;48.182;-1.644;2023-02-01T07:50:18;10.40;82.30
12622;DHT22;6376;48.182;-1.644;2023-02-01T07:52:44;10.40;82.30
12622;DHT22;6376;48.182;-1.644;2023-02-01T07:55:10;10.40;82.30
12622;DHT22;6376;48.182;-1.644;2023-02-01T07:57:35;10.40;82.40
12622;DHT22;6376;48.182;-1.644;2023-02-01T08:00:01;10.40;82.30
12622;DHT22;6376;48.182;-1.644;2023-02-01T08:02:45;10.40;82.30
12622;DHT22;6376;48.182;-1.644;2023-02-01T08:05:11;10.40;82.30
12622;DHT22;6376;48.182;-1.644;2023-02-01T08:07:37;10.40;82.30
12622;DHT22;6376;48.182;-1.644;2023-02-01T08:10:02;10.40;82.20
12622;DHT22;6376;48.182;-1.644;2023-02-01T08:12:30;10.40;82.20
12622;DHT22;6376;48.182;-1.644;2023-02-01T08:14:56;10.40;82.30
12622;DHT22;6376;48.182;-1.644;2023-02-01T08:17:22;10.40;82.20
12622;DHT22;6376;48.182;-1.644;2023-02-01T08:19:47;10.40;82.20
12622;DHT22;6376;48.182;-1.644;2023-02-01T08:22:13;10.40;82.20
12622;DHT22;6376;48.182;-1.644;2023-02-01T08:24:38;10.40;82.20
12622;DHT22;6376;48.182;-1.644;2023-02-01T08:27:06;10.40;82.20
12622;DHT22;6376;48.182;-1.644;2023-02-01T08:29:31;10.40;82.20
12622;DHT22;6376;48.182;-1.644;2023-02-01T08:31:58;10.40;82.20
12622;DHT22;6376;48.182;-1.644;2023-02-01T08:34:23;10.40;82.20
12622;DHT22;6376;48.182;-1.644;2023-02-01T08:36:49;10.40;82.20
12622;DHT22;6376;48.182;-1.644;2023-02-01T08:39:17;10.40;82.20
12622;DHT22;6376;48.182;-1.644;2023-02-01T08:41:43;10.40;82.10
12622;DHT22;6376;48.182;-1.644;2023-02-01T08:44:28;10.40;82.00
12622;DHT22;6376;48.182;-1.644;2023-02-01T08:46:54;10.50;82.20
12622;DHT22;6376;48.182;-1.644;2023-02-01T08:49:19;10.50;82.00
12622;DHT22;6376;48.182;-1.644;2023-02-01T08:51:45;10.50;81.70
12622;DHT22;6376;48.182;-1.644;2023-02-01T08:54:11;10.50;81.80
12622;DHT22;6376;48.182;-1.644;2023-02-01T08:56:36;10.50;81.80
12622;DHT22;6376;48.182;-1.644;2023-02-01T08:59:02;10.50;81.80
12622;DHT22;6376;48.182;-1.644;2023-02-01T09:01:27;10.50;81.80
12622;DHT22;6376;48.182;-1.644;2023-02-01T09:03:53;10.40;81.90
12622;DHT22;6376;48.182;-1.644;2023-02-01T09:06:19;10.40;81.90
12622;DHT22;6376;48.182;-1.644;2023-02-01T09:08:44;10.50;81.90
12622;DHT22;6376;48.182;-1.644;2023-02-01T09:11:16;10.40;81.80
12622;DHT22;6376;48.182;-1.644;2023-02-01T09:13:42;10.40;81.80
12622;DHT22;6376;48.182;-1.644;2023-02-01T09:16:08;10.50;81.90
12622;DHT22;6376;48.182;-1.644;2023-02-01T09:18:34;10.40;81.80
12622;DHT22;6376;48.182;-1.644;2023-02-01T09:21:04;10.40;81.80
12622;DHT22;6376;48.182;-1.644;2023-02-01T09:23:30;10.40;81.80
12622;DHT22;6376;48.182;-1.644;2023-02-01T09:26:02;10.50;81.90
12622;DHT22;6376;48.182;-1.644;2023-02-01T09:28:28;10.40;81.80
12622;DHT22;6376;48.182;-1.644;2023-02-01T09:30:58;10.40;81.80
12622;DHT22;6376;48.182;-1.644;2023-02-01T09:33:25;10.40;81.80
12622;DHT22;6376;48.182;-1.644;2023-02-01T09:35:58;10.40;81.80
12622;DHT22;6376;48.182;-1.644;2023-02-01T09:38:24;10.40;81.80
12622;DHT22;6376;48.182;-1.644;2023-02-01T09:40:52;10.40;81.80
12622;DHT22;6376;48.182;-1.644;2023-02-01T09:43:46;10.40;81.80
12622;DHT22;6376;48.182;-1.644;2023-02-01T09:46:27;10.40;81.80
12622;DHT22;6376;48.182;-1.644;2023-02-01T09:48:56;10.40;81.80
12622;DHT22;6376;48.182;-1.644;2023-02-01T09:51:39;10.40;81.80
12622;DHT22;6376;48.182;-1.644;2023-02-01T09:54:09;10.40;81.80
12622;DHT22;6376;48.182;-1.644;2023-02-01T09:56:44;10.40;81.70
12622;DHT22;6376;48.182;-1.644;2023-02-01T10:01:57;10.50;81.80
12622;DHT22;6376;48.182;-1.644;2023-02-01T10:04:25;10.40;81.70
12622;DHT22;6376;48.182;-1.644;2023-02-01T10:07:00;10.40;81.60
12622;DHT22;6376;48.182;-1.644;2023-02-01T10:14:59;10.50;81.60
12622;DHT22;6376;48.182;-1.644;2023-02-01T10:22:46;10.50;81.50
12622;DHT22;6376;48.182;-1.644;2023-02-01T10:27:42;10.50;81.40
12622;DHT22;6376;48.182;-1.644;2023-02-01T10:30:23;10.50;81.40
12622;DHT22;6376;48.182;-1.644;2023-02-01T10:32:54;10.50;81.40
12622;DHT22;6376;48.182;-1.644;2023-02-01T10:35:39;10.50;81.40
12622;DHT22;6376;48.182;-1.644;2023-02-01T10:38:17;10.50;81.30
12622;DHT22;6376;48.182;-1.644;2023-02-01T10:40:46;10.50;81.30
12622;DHT22;6376;48.182;-1.644;2023-02-01T10:43:12;10.50;81.30
12622;DHT22;6376;48.182;-1.644;2023-02-01T10:45:38;10.50;81.30
12622;DHT22;6376;48.182;-1.644;2023-02-01T10:48:05;10.50;81.30
12622;DHT22;6376;48.182;-1.644;2023-02-01T10:51:26;10.50;81.30
12622;DHT22;6376;48.182;-1.644;2023-02-01T10:53:52;10.50;81.30
12622;DHT22;6376;48.182;-1.644;2023-02-01T10:56:25;10.50;81.30
12622;DHT22;6376;48.182;-1.644;2023-02-01T10:58:59;10.50;81.30
12622;DHT22;6376;48.182;-1.644;2023-02-01T11:01:31;10.50;81.20
12622;DHT22;6376;48.182;-1.644;2023-02-01T11:04:04;10.50;81.20
12622;DHT22;6376;48.182;-1.644;2023-02-01T11:06:35;10.50;81.20
12622;DHT22;6376;48.182;-1.644;2023-02-01T11:11:53;10.60;81.30
12622;DHT22;6376;48.182;-1.644;2023-02-01T11:16:52;10.50;81.20
12622;DHT22;6376;48.182;-1.644;2023-02-01T11:19:18;10.50;81.20
12622;DHT22;6376;48.182;-1.644;2023-02-01T11:21:45;10.60;81.20
12622;DHT22;6376;48.182;-1.644;2023-02-01T11:24:29;10.60;81.90
12622;DHT22;6376;48.182;-1.644;2023-02-01T11:26:58;10.60;81.20
12622;DHT22;6376;48.182;-1.644;2023-02-01T11:29:25;10.60;81.10
12622;DHT22;6376;48.182;-1.644;2023-02-01T11:31:59;10.60;81.10
12622;DHT22;6376;48.182;-1.644;2023-02-01T11:34:31;10.60;81.20
12622;DHT22;6376;48.182;-1.644;2023-02-01T11:37:00;10.60;81.10
12622;DHT22;6376;48.182;-1.644;2023-02-01T11:39:33;10.60;81.10
12622;DHT22;6376;48.182;-1.644;2023-02-01T11:42:16;10.60;81.10
12622;DHT22;6376;48.182;-1.644;2023-02-01T11:44:44;10.60;81.10
12622;DHT22;6376;48.182;-1.644;2023-02-01T11:47:28;10.60;81.10
12622;DHT22;6376;48.182;-1.644;2023-02-01T11:50:12;10.60;81.10
12622;DHT22;6376;48.182;-1.644;2023-02-01T11:55:29;10.70;81.10
12622;DHT22;6376;48.182;-1.644;2023-02-01T12:14:50;10.90;80.30
12622;DHT22;6376;48.182;-1.644;2023-02-01T12:23:18;11.20;81.10
12622;DHT22;6376;48.182;-1.644;2023-02-01T12:45:45;11.80;79.20
12622;DHT22;6376;48.182;-1.644;2023-02-01T12:50:57;11.90;79.30
12622;DHT22;6376;48.182;-1.644;2023-02-01T12:54:09;11.90;79.30
12622;DHT22;6376;48.182;-1.644;2023-02-01T12:57:09;12.00;79.60
12622;DHT22;6376;48.182;-1.644;2023-02-01T12:59:39;12.00;79.60
12622;DHT22;6376;48.182;-1.644;2023-02-01T13:02:32;12.00;79.50
12622;DHT22;6376;48.182;-1.644;2023-02-01T13:05:28;12.10;79.60
12622;DHT22;6376;48.182;-1.644;2023-02-01T13:08:03;12.10;79.60
12622;DHT22;6376;48.182;-1.644;2023-02-01T13:11:36;12.20;79.70
12622;DHT22;6376;48.182;-1.644;2023-02-01T13:16:49;12.30;79.40
12622;DHT22;6376;48.182;-1.644;2023-02-01T13:19:28;12.30;79.20
12622;DHT22;6376;48.182;-1.644;2023-02-01T13:21:59;12.30;79.10
12622;DHT22;6376;48.182;-1.644;2023-02-01T13:24:30;12.30;79.00
12622;DHT22;6376;48.182;-1.644;2023-02-01T13:26:58;12.30;79.00
12622;DHT22;6376;48.182;-1.644;2023-02-01T13:29:24;12.40;79.10
12622;DHT22;6376;48.182;-1.644;2023-02-01T13:34:38;12.40;79.10
12622;DHT22;6376;48.182;-1.644;2023-02-01T13:45:24;12.50;78.90
12622;DHT22;6376;48.182;-1.644;2023-02-01T13:47:53;12.60;78.90
12622;DHT22;6376;48.182;-1.644;2023-02-01T13:50:30;12.60;79.00
12622;DHT22;6376;48.182;-1.644;2023-02-01T13:53:18;12.60;78.90
12622;DHT22;6376;48.182;-1.644;2023-02-01T13:58:31;12.70;78.90
12622;DHT22;6376;48.182;-1.644;2023-02-01T14:03:47;12.70;78.90
12622;DHT22;6376;48.182;-1.644;2023-02-01T14:06:38;12.70;78.80
12622;DHT22;6376;48.182;-1.644;2023-02-01T14:19:36;12.80;78.60
12622;DHT22;6376;48.182;-1.644;2023-02-01T14:24:40;12.90;78.70
12622;DHT22;6376;48.182;-1.644;2023-02-01T14:29:40;12.90;78.50
12622;DHT22;6376;48.182;-1.644;2023-02-01T14:39:50;13.10;78.50
12622;DHT22;6376;48.182;-1.644;2023-02-01T14:42:42;13.10;78.30
12622;DHT22;6376;48.182;-1.644;2023-02-01T14:55:54;13.20;78.00
12622;DHT22;6376;48.182;-1.644;2023-02-01T14:58:42;13.30;77.90
12622;DHT22;6376;48.182;-1.644;2023-02-01T15:03:56;13.30;77.80
12622;DHT22;6376;48.182;-1.644;2023-02-01T15:08:48;13.30;77.80
12622;DHT22;6376;48.182;-1.644;2023-02-01T15:11:15;13.40;77.80
12622;DHT22;6376;48.182;-1.644;2023-02-01T15:13:48;13.40;77.70
12622;DHT22;6376;48.182;-1.644;2023-02-01T15:16:17;13.40;77.70
12622;DHT22;6376;48.182;-1.644;2023-02-01T15:18:44;13.50;77.70
12622;DHT22;6376;48.182;-1.644;2023-02-01T15:21:20;13.50;77.60
12622;DHT22;6376;48.182;-1.644;2023-02-01T15:23:46;13.50;77.50
12622;DHT22;6376;48.182;-1.644;2023-02-01T15:26:34;13.50;77.60
12622;DHT22;6376;48.182;-1.644;2023-02-01T15:28:59;13.50;77.50
12622;DHT22;6376;48.182;-1.644;2023-02-01T15:31:37;13.60;77.50
12622;DHT22;6376;48.182;-1.644;2023-02-01T15:34:04;13.60;77.40
12622;DHT22;6376;48.182;-1.644;2023-02-01T15:36:29;13.60;77.40
12622;DHT22;6376;48.182;-1.644;2023-02-01T15:39:25;13.60;77.40
12622;DHT22;6376;48.182;-1.644;2023-02-01T15:42:08;13.60;77.30
12622;DHT22;6376;48.182;-1.644;2023-02-01T15:44:38;13.70;77.20
12622;DHT22;6376;48.182;-1.644;2023-02-01T15:47:31;13.70;77.20
12622;DHT22;6376;48.182;-1.644;2023-02-01T15:49:59;13.70;77.20
12622;DHT22;6376;48.182;-1.644;2023-02-01T15:52:36;13.70;77.10
12622;DHT22;6376;48.182;-1.644;2023-02-01T15:57:44;13.80;77.20
12622;DHT22;6376;48.182;-1.644;2023-02-01T16:00:28;13.80;77.10
12622;DHT22;6376;48.182;-1.644;2023-02-01T16:02:57;13.80;77.10
12622;DHT22;6376;48.182;-1.644;2023-02-01T16:05:41;13.80;77.10
12622;DHT22;6376;48.182;-1.644;2023-02-01T16:08:24;13.80;77.10
12622;DHT22;6376;48.182;-1.644;2023-02-01T16:10:53;13.80;77.20
12622;DHT22;6376;48.182;-1.644;2023-02-01T16:13:20;13.70;77.40
12622;DHT22;6376;48.182;-1.644;2023-02-01T16:15:46;13.70;77.40
12622;DHT22;6376;48.182;-1.644;2023-02-01T16:18:13;13.60;77.60
12622;DHT22;6376;48.182;-1.644;2023-02-01T16:20:41;13.60;77.50
12622;DHT22;6376;48.182;-1.644;2023-02-01T16:23:08;13.60;77.60
12622;DHT22;6376;48.182;-1.644;2023-02-01T16:25:34;13.50;77.50
12622;DHT22;6376;48.182;-1.644;2023-02-01T16:28:00;13.50;77.70
12622;DHT22;6376;48.182;-1.644;2023-02-01T16:30:26;13.50;77.50
12622;DHT22;6376;48.182;-1.644;2023-02-01T16:32:53;13.40;77.50
12622;DHT22;6376;48.182;-1.644;2023-02-01T16:35:27;13.40;77.50
12622;DHT22;6376;48.182;-1.644;2023-02-01T16:37:55;13.30;77.50
12622;DHT22;6376;48.182;-1.644;2023-02-01T16:40:21;13.30;77.60
12622;DHT22;6376;48.182;-1.644;2023-02-01T16:42:50;13.30;77.80
12622;DHT22;6376;48.182;-1.644;2023-02-01T16:45:16;13.20;77.90
12622;DHT22;6376;48.182;-1.644;2023-02-01T16:47:47;13.20;77.80
12622;DHT22;6376;48.182;-1.644;2023-02-01T16:50:17;13.10;77.60
12622;DHT22;6376;48.182;-1.644;2023-02-01T16:52:44;13.10;77.70
12622;DHT22;6376;48.182;-1.644;2023-02-01T16:55:17;13.00;77.60
12622;DHT22;6376;48.182;-1.644;2023-02-01T16:57:43;13.00;77.60
12622;DHT22;6376;48.182;-1.644;2023-02-01T17:00:11;13.00;77.60
12622;DHT22;6376;48.182;-1.644;2023-02-01T17:02:43;12.90;77.50
12622;DHT22;6376;48.182;-1.644;2023-02-01T17:05:11;12.90;77.60
12622;DHT22;6376;48.182;-1.644;2023-02-01T17:07:38;12.90;77.60
12622;DHT22;6376;48.182;-1.644;2023-02-01T17:10:05;12.80;77.70
12622;DHT22;6376;48.182;-1.644;2023-02-01T17:12:32;12.80;77.70
12622;DHT22;6376;48.182;-1.644;2023-02-01T17:14:59;12.80;77.90
12622;DHT22;6376;48.182;-1.644;2023-02-01T17:17:33;12.80;77.80
12622;DHT22;6376;48.182;-1.644;2023-02-01T17:20:00;12.70;78.00
12622;DHT22;6376;48.182;-1.644;2023-02-01T17:22:26;12.70;78.00
12622;DHT22;6376;48.182;-1.644;2023-02-01T17:24:52;12.70;78.10
12622;DHT22;6376;48.182;-1.644;2023-02-01T17:27:18;12.60;78.10
12622;DHT22;6376;48.182;-1.644;2023-02-01T17:29:44;12.60;78.20
12622;DHT22;6376;48.182;-1.644;2023-02-01T17:32:22;12.60;78.40
12622;DHT22;6376;48.182;-1.644;2023-02-01T17:34:48;12.60;78.40
12622;DHT22;6376;48.182;-1.644;2023-02-01T17:37:29;12.60;78.50
12622;DHT22;6376;48.182;-1.644;2023-02-01T17:39:55;12.50;78.50
12622;DHT22;6376;48.182;-1.644;2023-02-01T17:42:26;12.50;78.60
12622;DHT22;6376;48.182;-1.644;2023-02-01T17:44:59;12.50;78.60
12622;DHT22;6376;48.182;-1.644;2023-02-01T17:47:25;12.50;78.70
12622;DHT22;6376;48.182;-1.644;2023-02-01T17:49:51;12.50;78.80
12622;DHT22;6376;48.182;-1.644;2023-02-01T17:52:22;12.40;78.80
12622;DHT22;6376;48.182;-1.644;2023-02-01T17:54:48;12.40;78.80
12622;DHT22;6376;48.182;-1.644;2023-02-01T17:57:15;12.40;78.90
12622;DHT22;6376;48.182;-1.644;2023-02-01T17:59:41;12.40;79.80
12622;DHT22;6376;48.182;-1.644;2023-02-01T18:02:18;12.40;79.10
12622;DHT22;6376;48.182;-1.644;2023-02-01T18:04:44;12.30;79.80
12622;DHT22;6376;48.182;-1.644;2023-02-01T18:07:09;12.30;79.10
12622;DHT22;6376;48.182;-1.644;2023-02-01T18:09:35;12.30;79.20
12622;DHT22;6376;48.182;-1.644;2023-02-01T18:12:02;12.30;79.30
12622;DHT22;6376;48.182;-1.644;2023-02-01T18:14:29;12.30;79.30
12622;DHT22;6376;48.182;-1.644;2023-02-01T18:16:54;12.30;79.30
12622;DHT22;6376;48.182;-1.644;2023-02-01T18:19:20;12.20;79.30
12622;DHT22;6376;48.182;-1.644;2023-02-01T18:21:46;12.20;79.30
12622;DHT22;6376;48.182;-1.644;2023-02-01T18:24:12;12.20;79.40
12622;DHT22;6376;48.182;-1.644;2023-02-01T18:26:39;12.20;79.40
12622;DHT22;6376;48.182;-1.644;2023-02-01T18:29:05;12.20;79.60
12622;DHT22;6376;48.182;-1.644;2023-02-01T18:31:31;12.20;79.60
12622;DHT22;6376;48.182;-1.644;2023-02-01T18:33:58;12.20;79.60
12622;DHT22;6376;48.182;-1.644;2023-02-01T18:36:25;12.20;79.70